sensor_id;sensor_type;location;lat;lon;timestamp;P1;durP1;ratioP1;P2;durP2;ratioP2
39190;SDS011;24916;51.676;6.614;2023-06-22T00:01:53;14.57;;;9.17;;
39190;SDS011;24916;51.676;6.614;2023-06-22T00:04:18;12.03;;;9.87;;
39190;SDS011;24916;51.676;6.614;2023-06-22T00:06:44;14.27;;;10.40;;
39190;SDS011;24916;51.676;6.614;2023-06-22T00:09:10;14.82;;;10.93;;
39190;SDS011;24916;51.676;6.614;2023-06-22T00:11:36;12.07;;;9.38;;
39190;SDS011;24916;51.676;6.614;2023-06-22T00:14:01;11.63;;;9.65;;
39190;SDS011;24916;51.676;6.614;2023-06-22T00:16:26;13.13;;;10.43;;
39190;SDS011;24916;51.676;6.614;2023-06-22T00:18:52;16.33;;;10.75;;
39190;SDS011;24916;51.676;6.614;2023-06-22T00:21:17;14.33;;;9.87;;
39190;SDS011;24916;51.676;6.614;2023-06-22T00:23:44;15.73;;;9.88;;
39190;SDS011;24916;51.676;6.614;2023-06-22T00:26:09;17.48;;;11.00;;
39190;SDS011;24916;51.676;6.614;2023-06-22T00:28:35;14.30;;;10.35;;
39190;SDS011;24916;51.676;6.614;2023-06-22T00:31:00;14.18;;;10.90;;
39190;SDS011;24916;51.676;6.614;2023-06-22T00:33:26;14.93;;;10.40;;
39190;SDS011;24916;51.676;6.614;2023-06-22T00:35:51;11.68;;;9.70;;
39190;SDS011;24916;51.676;6.614;2023-06-22T00:38:17;18.00;;;10.60;;
39190;SDS011;24916;51.676;6.614;2023-06-22T00:40:43;11.98;;;9.45;;
39190;SDS011;24916;51.676;6.614;2023-06-22T00:43:08;13.02;;;10.55;;
39190;SDS011;24916;51.676;6.614;2023-06-22T00:45:33;15.10;;;10.00;;
39190;SDS011;24916;51.676;6.614;2023-06-22T00:47:58;15.00;;;10.27;;
39190;SDS011;24916;51.676;6.614;2023-06-22T00:50:25;11.70;;;10.07;;
39190;SDS011;24916;51.676;6.614;2023-06-22T00:52:51;13.23;;;10.93;;
39190;SDS011;24916;51.676;6.614;2023-06-22T00:55:17;14.02;;;10.50;;
39190;SDS011;24916;51.676;6.614;2023-06-22T00:57:43;14.98;;;10.93;;
39190;SDS011;24916;51.676;6.614;2023-06-22T01:00:10;17.50;;;10.93;;
39190;SDS011;24916;51.676;6.614;2023-06-22T01:02:36;14.63;;;10.90;;
39190;SDS011;24916;51.676;6.614;2023-06-22T01:05:03;13.40;;;11.02;;
39190;SDS011;24916;51.676;6.614;2023-06-22T01:07:35;16.50;;;11.20;;
39190;SDS011;24916;51.676;6.614;2023-06-22T01:10:07;11.75;;;9.75;;
39190;SDS011;24916;51.676;6.614;2023-06-22T01:12:34;12.75;;;9.93;;
39190;SDS011;24916;51.676;6.614;2023-06-22T01:15:04;11.68;;;10.23;;
39190;SDS011;24916;51.676;6.614;2023-06-22T01:17:33;12.65;;;10.13;;
39190;SDS011;24916;51.676;6.614;2023-06-22T01:19:59;14.82;;;10.55;;
39190;SDS011;24916;51.676;6.614;2023-06-22T01:22:27;18.75;;;10.85;;
39190;SDS011;24916;51.676;6.614;2023-06-22T01:30:06;11.80;;;10.02;;
39190;SDS011;24916;51.676;6.614;2023-06-22T01:32:33;13.25;;;10.35;;
39190;SDS011;24916;51.676;6.614;2023-06-22T01:35:00;13.23;;;10.10;;
39190;SDS011;24916;51.676;6.614;2023-06-22T01:37:26;14.80;;;10.05;;
39190;SDS011;24916;51.676;6.614;2023-06-22T01:39:52;13.15;;;11.52;;
39190;SDS011;24916;51.676;6.614;2023-06-22T01:42:18;12.57;;;9.70;;
39190;SDS011;24916;51.676;6.614;2023-06-22T01:44:43;14.35;;;10.63;;
39190;SDS011;24916;51.676;6.614;2023-06-22T01:47:09;13.82;;;11.07;;
39190;SDS011;24916;51.676;6.614;2023-06-22T01:49:34;18.45;;;10.65;;
39190;SDS011;24916;51.676;6.614;2023-06-22T01:52:00;14.45;;;10.63;;
39190;SDS011;24916;51.676;6.614;2023-06-22T01:54:25;13.00;;;10.38;;
39190;SDS011;24916;51.676;6.614;2023-06-22T01:56:50;13.23;;;9.68;;
39190;SDS011;24916;51.676;6.614;2023-06-22T01:59:22;15.30;;;10.20;;
39190;SDS011;24916;51.676;6.614;2023-06-22T02:01:52;12.27;;;10.55;;
39190;SDS011;24916;51.676;6.614;2023-06-22T02:04:20;14.02;;;10.27;;
39190;SDS011;24916;51.676;6.614;2023-06-22T02:06:46;13.23;;;10.95;;
39190;SDS011;24916;51.676;6.614;2023-06-22T02:09:14;11.63;;;10.30;;
39190;SDS011;24916;51.676;6.614;2023-06-22T02:11:41;14.13;;;9.82;;
39190;SDS011;24916;51.676;6.614;2023-06-22T02:14:06;13.75;;;11.13;;
39190;SDS011;24916;51.676;6.614;2023-06-22T02:16:32;12.90;;;10.05;;
39190;SDS011;24916;51.676;6.614;2023-06-22T02:18:57;12.98;;;10.02;;
39190;SDS011;24916;51.676;6.614;2023-06-22T02:21:28;14.20;;;10.10;;
39190;SDS011;24916;51.676;6.614;2023-06-22T02:23:53;13.63;;;10.05;;
39190;SDS011;24916;51.676;6.614;2023-06-22T02:26:18;11.97;;;10.73;;
39190;SDS011;24916;51.676;6.614;2023-06-22T02:28:43;11.90;;;10.70;;
39190;SDS011;24916;51.676;6.614;2023-06-22T02:31:09;16.60;;;11.02;;
39190;SDS011;24916;51.676;6.614;2023-06-22T02:33:34;16.30;;;11.87;;
39190;SDS011;24916;51.676;6.614;2023-06-22T02:36:00;12.27;;;11.07;;
39190;SDS011;24916;51.676;6.614;2023-06-22T02:38:25;12.75;;;11.30;;
39190;SDS011;24916;51.676;6.614;2023-06-22T02:40:51;13.13;;;11.43;;
39190;SDS011;24916;51.676;6.614;2023-06-22T02:43:16;12.25;;;10.63;;
39190;SDS011;24916;51.676;6.614;2023-06-22T02:45:41;14.32;;;11.75;;
39190;SDS011;24916;51.676;6.614;2023-06-22T02:48:07;16.23;;;11.27;;
39190;SDS011;24916;51.676;6.614;2023-06-22T02:50:32;14.55;;;12.75;;
39190;SDS011;24916;51.676;6.614;2023-06-22T02:52:57;13.38;;;11.80;;
39190;SDS011;24916;51.676;6.614;2023-06-22T02:55:23;13.30;;;11.90;;
39190;SDS011;24916;51.676;6.614;2023-06-22T02:57:48;17.83;;;11.77;;
39190;SDS011;24916;51.676;6.614;2023-06-22T03:00:17;13.55;;;11.15;;
39190;SDS011;24916;51.676;6.614;2023-06-22T03:02:43;17.85;;;12.32;;
39190;SDS011;24916;51.676;6.614;2023-06-22T03:05:09;16.00;;;11.90;;
39190;SDS011;24916;51.676;6.614;2023-06-22T03:07:38;18.63;;;11.98;;
39190;SDS011;24916;51.676;6.614;2023-06-22T03:10:03;13.43;;;11.90;;
39190;SDS011;24916;51.676;6.614;2023-06-22T03:12:29;13.45;;;12.02;;
39190;SDS011;24916;51.676;6.614;2023-06-22T03:14:54;18.23;;;12.68;;
39190;SDS011;24916;51.676;6.614;2023-06-22T03:17:19;14.70;;;12.57;;
39190;SDS011;24916;51.676;6.614;2023-06-22T03:19:44;17.50;;;12.87;;
39190;SDS011;24916;51.676;6.614;2023-06-22T03:22:09;14.43;;;13.00;;
39190;SDS011;24916;51.676;6.614;2023-06-22T03:24:35;15.68;;;12.80;;
39190;SDS011;24916;51.676;6.614;2023-06-22T03:27:02;14.00;;;12.48;;
39190;SDS011;24916;51.676;6.614;2023-06-22T03:29:29;13.38;;;12.07;;
39190;SDS011;24916;51.676;6.614;2023-06-22T03:31:55;17.95;;;13.82;;
39190;SDS011;24916;51.676;6.614;2023-06-22T03:34:20;19.00;;;13.17;;
39190;SDS011;24916;51.676;6.614;2023-06-22T03:36:45;16.35;;;13.80;;
39190;SDS011;24916;51.676;6.614;2023-06-22T03:39:10;14.32;;;12.82;;
39190;SDS011;24916;51.676;6.614;2023-06-22T03:41:35;16.23;;;13.52;;
39190;SDS011;24916;51.676;6.614;2023-06-22T03:44:01;15.10;;;13.60;;
39190;SDS011;24916;51.676;6.614;2023-06-22T03:46:26;17.93;;;14.10;;
39190;SDS011;24916;51.676;6.614;2023-06-22T03:48:51;16.58;;;14.88;;
39190;SDS011;24916;51.676;6.614;2023-06-22T03:51:17;17.33;;;14.18;;
39190;SDS011;24916;51.676;6.614;2023-06-22T03:53:42;20.85;;;13.52;;
39190;SDS011;24916;51.676;6.614;2023-06-22T03:56:08;16.60;;;14.18;;
39190;SDS011;24916;51.676;6.614;2023-06-22T03:58:33;15.63;;;14.05;;
39190;SDS011;24916;51.676;6.614;2023-06-22T04:01:01;23.67;;;14.13;;
39190;SDS011;24916;51.676;6.614;2023-06-22T04:03:26;19.88;;;14.25;;
39190;SDS011;24916;51.676;6.614;2023-06-22T04:05:51;17.47;;;15.10;;
39190;SDS011;24916;51.676;6.614;2023-06-22T04:08:17;15.60;;;14.05;;
39190;SDS011;24916;51.676;6.614;2023-06-22T04:10:43;18.05;;;14.52;;
39190;SDS011;24916;51.676;6.614;2023-06-22T04:13:08;20.63;;;15.27;;
39190;SDS011;24916;51.676;6.614;2023-06-22T04:15:33;19.98;;;15.68;;
39190;SDS011;24916;51.676;6.614;2023-06-22T04:17:58;18.48;;;14.50;;
39190;SDS011;24916;51.676;6.614;2023-06-22T04:20:24;21.95;;;16.27;;
39190;SDS011;24916;51.676;6.614;2023-06-22T04:22:53;17.58;;;15.30;;
39190;SDS011;24916;51.676;6.614;2023-06-22T04:25:18;16.98;;;15.20;;
39190;SDS011;24916;51.676;6.614;2023-06-22T04:27:44;16.80;;;14.85;;
39190;SDS011;24916;51.676;6.614;2023-06-22T04:30:10;22.10;;;14.95;;
39190;SDS011;24916;51.676;6.614;2023-06-22T04:32:35;17.17;;;15.23;;
39190;SDS011;24916;51.676;6.614;2023-06-22T04:35:01;16.08;;;14.43;;
39190;SDS011;24916;51.676;6.614;2023-06-22T04:37:27;15.75;;;14.15;;
39190;SDS011;24916;51.676;6.614;2023-06-22T04:39:52;17.20;;;14.65;;
39190;SDS011;24916;51.676;6.614;2023-06-22T04:42:18;17.50;;;14.77;;
39190;SDS011;24916;51.676;6.614;2023-06-22T04:44:43;16.67;;;14.23;;
39190;SDS011;24916;51.676;6.614;2023-06-22T04:47:08;17.63;;;14.97;;
39190;SDS011;24916;51.676;6.614;2023-06-22T04:49:34;18.20;;;14.55;;
39190;SDS011;24916;51.676;6.614;2023-06-22T04:52:04;15.23;;;13.63;;
39190;SDS011;24916;51.676;6.614;2023-06-22T04:54:30;18.15;;;14.90;;
39190;SDS011;24916;51.676;6.614;2023-06-22T04:56:58;15.93;;;14.25;;
39190;SDS011;24916;51.676;6.614;2023-06-22T04:59:23;15.80;;;13.82;;
39190;SDS011;24916;51.676;6.614;2023-06-22T05:01:53;14.57;;;13.18;;
39190;SDS011;24916;51.676;6.614;2023-06-22T05:04:18;20.98;;;13.85;;
39190;SDS011;24916;51.676;6.614;2023-06-22T05:06:44;16.83;;;14.82;;
39190;SDS011;24916;51.676;6.614;2023-06-22T05:09:10;18.73;;;14.35;;
39190;SDS011;24916;51.676;6.614;2023-06-22T05:11:37;19.02;;;14.70;;
39190;SDS011;24916;51.676;6.614;2023-06-22T05:14:02;22.45;;;14.52;;
39190;SDS011;24916;51.676;6.614;2023-06-22T05:16:27;16.20;;;14.60;;
39190;SDS011;24916;51.676;6.614;2023-06-22T05:18:53;18.80;;;13.40;;
39190;SDS011;24916;51.676;6.614;2023-06-22T05:21:22;18.08;;;14.38;;
39190;SDS011;24916;51.676;6.614;2023-06-22T05:23:48;15.52;;;13.93;;
39190;SDS011;24916;51.676;6.614;2023-06-22T05:26:13;15.52;;;14.02;;
39190;SDS011;24916;51.676;6.614;2023-06-22T05:28:39;16.33;;;14.25;;
39190;SDS011;24916;51.676;6.614;2023-06-22T05:31:04;15.10;;;13.55;;
39190;SDS011;24916;51.676;6.614;2023-06-22T05:33:29;15.15;;;13.48;;
39190;SDS011;24916;51.676;6.614;2023-06-22T05:35:54;16.87;;;12.87;;
39190;SDS011;24916;51.676;6.614;2023-06-22T05:38:19;18.27;;;14.30;;
39190;SDS011;24916;51.676;6.614;2023-06-22T05:40:45;18.70;;;13.73;;
39190;SDS011;24916;51.676;6.614;2023-06-22T05:43:10;15.02;;;13.48;;
39190;SDS011;24916;51.676;6.614;2023-06-22T05:45:35;14.50;;;13.10;;
39190;SDS011;24916;51.676;6.614;2023-06-22T05:48:00;20.93;;;14.43;;
39190;SDS011;24916;51.676;6.614;2023-06-22T05:50:26;14.65;;;13.18;;
39190;SDS011;24916;51.676;6.614;2023-06-22T05:52:51;16.33;;;12.90;;
39190;SDS011;24916;51.676;6.614;2023-06-22T05:55:16;23.53;;;13.27;;
39190;SDS011;24916;51.676;6.614;2023-06-22T05:57:43;17.65;;;14.23;;
39190;SDS011;24916;51.676;6.614;2023-06-22T06:00:09;16.17;;;13.70;;
39190;SDS011;24916;51.676;6.614;2023-06-22T06:02:36;17.02;;;13.40;;
39190;SDS011;24916;51.676;6.614;2023-06-22T06:05:01;16.63;;;13.68;;
39190;SDS011;24916;51.676;6.614;2023-06-22T06:07:27;16.40;;;13.70;;
39190;SDS011;24916;51.676;6.614;2023-06-22T06:09:52;15.43;;;13.38;;
39190;SDS011;24916;51.676;6.614;2023-06-22T06:12:18;19.55;;;12.52;;
39190;SDS011;24916;51.676;6.614;2023-06-22T06:14:43;15.53;;;13.47;;
39190;SDS011;24916;51.676;6.614;2023-06-22T06:17:08;17.50;;;14.77;;
39190;SDS011;24916;51.676;6.614;2023-06-22T06:19:33;15.85;;;14.15;;
39190;SDS011;24916;51.676;6.614;2023-06-22T06:21:59;15.93;;;13.70;;
39190;SDS011;24916;51.676;6.614;2023-06-22T06:24:24;21.23;;;14.80;;
39190;SDS011;24916;51.676;6.614;2023-06-22T06:26:49;17.63;;;13.60;;
39190;SDS011;24916;51.676;6.614;2023-06-22T06:29:15;18.13;;;14.13;;
39190;SDS011;24916;51.676;6.614;2023-06-22T06:31:41;16.23;;;14.48;;
39190;SDS011;24916;51.676;6.614;2023-06-22T06:34:06;15.88;;;14.18;;
39190;SDS011;24916;51.676;6.614;2023-06-22T06:36:31;16.83;;;14.23;;
39190;SDS011;24916;51.676;6.614;2023-06-22T06:38:57;18.53;;;14.37;;
39190;SDS011;24916;51.676;6.614;2023-06-22T06:41:22;18.38;;;15.90;;
39190;SDS011;24916;51.676;6.614;2023-06-22T06:43:48;17.83;;;15.90;;
39190;SDS011;24916;51.676;6.614;2023-06-22T06:46:13;15.95;;;14.25;;
39190;SDS011;24916;51.676;6.614;2023-06-22T06:48:38;20.95;;;15.13;;
39190;SDS011;24916;51.676;6.614;2023-06-22T06:51:04;17.02;;;15.23;;
39190;SDS011;24916;51.676;6.614;2023-06-22T06:53:30;17.15;;;14.98;;
39190;SDS011;24916;51.676;6.614;2023-06-22T06:55:55;18.90;;;15.52;;
39190;SDS011;24916;51.676;6.614;2023-06-22T06:58:21;16.17;;;14.30;;
39190;SDS011;24916;51.676;6.614;2023-06-22T07:00:48;19.65;;;15.70;;
39190;SDS011;24916;51.676;6.614;2023-06-22T07:03:13;19.75;;;15.38;;
39190;SDS011;24916;51.676;6.614;2023-06-22T07:05:39;16.85;;;15.05;;
39190;SDS011;24916;51.676;6.614;2023-06-22T07:08:04;17.50;;;13.70;;
39190;SDS011;24916;51.676;6.614;2023-06-22T07:10:29;17.25;;;13.80;;
39190;SDS011;24916;51.676;6.614;2023-06-22T07:12:55;15.87;;;12.93;;
39190;SDS011;24916;51.676;6.614;2023-06-22T07:15:20;18.48;;;13.35;;
39190;SDS011;24916;51.676;6.614;2023-06-22T07:17:45;15.23;;;13.65;;
39190;SDS011;24916;51.676;6.614;2023-06-22T07:20:11;16.02;;;14.13;;
39190;SDS011;24916;51.676;6.614;2023-06-22T07:22:39;15.38;;;13.88;;
39190;SDS011;24916;51.676;6.614;2023-06-22T07:25:04;15.20;;;13.32;;
39190;SDS011;24916;51.676;6.614;2023-06-22T07:27:33;19.23;;;13.57;;
39190;SDS011;24916;51.676;6.614;2023-06-22T07:30:01;16.75;;;14.25;;
39190;SDS011;24916;51.676;6.614;2023-06-22T07:32:26;16.67;;;14.95;;
39190;SDS011;24916;51.676;6.614;2023-06-22T07:34:53;21.00;;;14.60;;
39190;SDS011;24916;51.676;6.614;2023-06-22T07:37:18;17.97;;;13.63;;
39190;SDS011;24916;51.676;6.614;2023-06-22T07:39:43;15.65;;;14.15;;
39190;SDS011;24916;51.676;6.614;2023-06-22T07:42:09;15.33;;;13.73;;
39190;SDS011;24916;51.676;6.614;2023-06-22T07:44:34;19.10;;;14.65;;
39190;SDS011;24916;51.676;6.614;2023-06-22T07:46:59;15.40;;;13.80;;
39190;SDS011;24916;51.676;6.614;2023-06-22T07:49:24;16.55;;;14.88;;
39190;SDS011;24916;51.676;6.614;2023-06-22T07:51:50;16.30;;;14.52;;
39190;SDS011;24916;51.676;6.614;2023-06-22T07:54:15;14.73;;;13.25;;
39190;SDS011;24916;51.676;6.614;2023-06-22T07:56:41;17.55;;;13.75;;
39190;SDS011;24916;51.676;6.614;2023-06-22T07:59:06;18.70;;;13.77;;
39190;SDS011;24916;51.676;6.614;2023-06-22T08:01:32;14.67;;;11.50;;
39190;SDS011;24916;51.676;6.614;2023-06-22T08:03:57;14.27;;;12.60;;
39190;SDS011;24916;51.676;6.614;2023-06-22T08:06:22;13.77;;;12.37;;
39190;SDS011;24916;51.676;6.614;2023-06-22T08:08:47;14.77;;;13.25;;
39190;SDS011;24916;51.676;6.614;2023-06-22T08:11:14;15.32;;;12.60;;
39190;SDS011;24916;51.676;6.614;2023-06-22T08:13:39;20.70;;;12.85;;
39190;SDS011;24916;51.676;6.614;2023-06-22T08:16:04;19.43;;;12.13;;
39190;SDS011;24916;51.676;6.614;2023-06-22T08:18:29;21.02;;;12.57;;
39190;SDS011;24916;51.676;6.614;2023-06-22T08:20:55;16.20;;;12.18;;
39190;SDS011;24916;51.676;6.614;2023-06-22T08:23:20;15.90;;;12.20;;
39190;SDS011;24916;51.676;6.614;2023-06-22T08:25:45;13.68;;;12.13;;
39190;SDS011;24916;51.676;6.614;2023-06-22T08:28:11;21.13;;;11.85;;
39190;SDS011;24916;51.676;6.614;2023-06-22T08:30:36;15.03;;;12.20;;
39190;SDS011;24916;51.676;6.614;2023-06-22T08:33:01;13.27;;;11.88;;
39190;SDS011;24916;51.676;6.614;2023-06-22T08:35:26;14.20;;;11.43;;
39190;SDS011;24916;51.676;6.614;2023-06-22T08:37:52;15.38;;;11.57;;
39190;SDS011;24916;51.676;6.614;2023-06-22T08:40:22;14.75;;;13.23;;
39190;SDS011;24916;51.676;6.614;2023-06-22T08:42:47;16.38;;;12.13;;
39190;SDS011;24916;51.676;6.614;2023-06-22T08:45:13;14.88;;;12.75;;
39190;SDS011;24916;51.676;6.614;2023-06-22T08:47:39;13.20;;;11.80;;
39190;SDS011;24916;51.676;6.614;2023-06-22T08:50:04;14.00;;;11.65;;
39190;SDS011;24916;51.676;6.614;2023-06-22T08:52:30;18.35;;;11.90;;
39190;SDS011;24916;51.676;6.614;2023-06-22T08:54:56;13.75;;;11.55;;
39190;SDS011;24916;51.676;6.614;2023-06-22T08:57:21;12.90;;;11.57;;
39190;SDS011;24916;51.676;6.614;2023-06-22T08:59:47;15.52;;;12.38;;
39190;SDS011;24916;51.676;6.614;2023-06-22T09:02:12;15.75;;;11.00;;
39190;SDS011;24916;51.676;6.614;2023-06-22T09:04:37;13.38;;;11.70;;
39190;SDS011;24916;51.676;6.614;2023-06-22T09:07:03;18.98;;;12.27;;
39190;SDS011;24916;51.676;6.614;2023-06-22T09:09:28;14.98;;;12.30;;
39190;SDS011;24916;51.676;6.614;2023-06-22T09:11:54;13.30;;;11.95;;
39190;SDS011;24916;51.676;6.614;2023-06-22T09:14:19;14.45;;;12.20;;
39190;SDS011;24916;51.676;6.614;2023-06-22T09:16:44;13.88;;;12.50;;
39190;SDS011;24916;51.676;6.614;2023-06-22T09:19:09;15.63;;;12.88;;
39190;SDS011;24916;51.676;6.614;2023-06-22T09:21:35;14.57;;;13.10;;
39190;SDS011;24916;51.676;6.614;2023-06-22T09:24:00;17.20;;;13.27;;
39190;SDS011;24916;51.676;6.614;2023-06-22T09:26:26;15.75;;;13.23;;
39190;SDS011;24916;51.676;6.614;2023-06-22T09:28:51;15.95;;;13.40;;
39190;SDS011;24916;51.676;6.614;2023-06-22T09:31:16;17.08;;;12.07;;
39190;SDS011;24916;51.676;6.614;2023-06-22T09:33:42;14.33;;;12.87;;
39190;SDS011;24916;51.676;6.614;2023-06-22T09:36:07;17.33;;;11.65;;
39190;SDS011;24916;51.676;6.614;2023-06-22T09:38:38;13.10;;;11.77;;
39190;SDS011;24916;51.676;6.614;2023-06-22T09:41:03;19.13;;;12.00;;
39190;SDS011;24916;51.676;6.614;2023-06-22T09:43:29;14.90;;;11.70;;
39190;SDS011;24916;51.676;6.614;2023-06-22T09:45:54;14.30;;;12.60;;
39190;SDS011;24916;51.676;6.614;2023-06-22T09:48:20;12.70;;;11.40;;
39190;SDS011;24916;51.676;6.614;2023-06-22T09:50:45;14.80;;;11.60;;
39190;SDS011;24916;51.676;6.614;2023-06-22T09:53:10;16.75;;;12.45;;
39190;SDS011;24916;51.676;6.614;2023-06-22T09:55:35;15.95;;;13.05;;
39190;SDS011;24916;51.676;6.614;2023-06-22T09:58:01;14.95;;;13.43;;
39190;SDS011;24916;51.676;6.614;2023-06-22T10:00:26;13.60;;;12.20;;
39190;SDS011;24916;51.676;6.614;2023-06-22T10:02:51;12.95;;;11.25;;
39190;SDS011;24916;51.676;6.614;2023-06-22T10:05:17;12.43;;;11.13;;
39190;SDS011;24916;51.676;6.614;2023-06-22T10:07:42;14.38;;;11.48;;
39190;SDS011;24916;51.676;6.614;2023-06-22T10:10:08;22.00;;;12.35;;
39190;SDS011;24916;51.676;6.614;2023-06-22T10:12:34;12.98;;;11.68;;
39190;SDS011;24916;51.676;6.614;2023-06-22T10:14:59;15.50;;;11.80;;
39190;SDS011;24916;51.676;6.614;2023-06-22T10:17:24;15.27;;;12.73;;
39190;SDS011;24916;51.676;6.614;2023-06-22T10:19:50;21.43;;;12.40;;
39190;SDS011;24916;51.676;6.614;2023-06-22T10:22:15;19.17;;;12.85;;
39190;SDS011;24916;51.676;6.614;2023-06-22T10:24:40;17.10;;;12.97;;
39190;SDS011;24916;51.676;6.614;2023-06-22T10:27:10;20.00;;;13.20;;
39190;SDS011;24916;51.676;6.614;2023-06-22T10:29:35;15.88;;;14.32;;
39190;SDS011;24916;51.676;6.614;2023-06-22T10:32:00;16.05;;;13.70;;
39190;SDS011;24916;51.676;6.614;2023-06-22T10:34:26;16.07;;;12.37;;
39190;SDS011;24916;51.676;6.614;2023-06-22T10:36:51;17.30;;;14.35;;
39190;SDS011;24916;51.676;6.614;2023-06-22T10:39:16;14.15;;;12.73;;
39190;SDS011;24916;51.676;6.614;2023-06-22T10:41:41;17.52;;;13.60;;
39190;SDS011;24916;51.676;6.614;2023-06-22T10:44:07;15.18;;;13.57;;
39190;SDS011;24916;51.676;6.614;2023-06-22T10:46:32;18.48;;;13.75;;
39190;SDS011;24916;51.676;6.614;2023-06-22T10:48:57;16.07;;;14.13;;
39190;SDS011;24916;51.676;6.614;2023-06-22T10:51:23;15.82;;;12.80;;
39190;SDS011;24916;51.676;6.614;2023-06-22T10:53:49;18.80;;;12.73;;
39190;SDS011;24916;51.676;6.614;2023-06-22T10:56:16;17.70;;;13.65;;
39190;SDS011;24916;51.676;6.614;2023-06-22T10:58:41;17.50;;;14.05;;
39190;SDS011;24916;51.676;6.614;2023-06-22T11:01:06;15.33;;;12.87;;
39190;SDS011;24916;51.676;6.614;2023-06-22T11:03:31;16.80;;;13.17;;
39190;SDS011;24916;51.676;6.614;2023-06-22T11:05:56;25.40;;;14.87;;
39190;SDS011;24916;51.676;6.614;2023-06-22T11:08:22;17.73;;;14.53;;
39190;SDS011;24916;51.676;6.614;2023-06-22T11:10:47;15.07;;;13.00;;
39190;SDS011;24916;51.676;6.614;2023-06-22T11:13:12;16.00;;;13.43;;
39190;SDS011;24916;51.676;6.614;2023-06-22T11:15:38;16.90;;;13.83;;
39190;SDS011;24916;51.676;6.614;2023-06-22T11:18:03;14.85;;;12.82;;
39190;SDS011;24916;51.676;6.614;2023-06-22T11:20:30;16.48;;;13.30;;
39190;SDS011;24916;51.676;6.614;2023-06-22T11:22:55;14.50;;;12.98;;
39190;SDS011;24916;51.676;6.614;2023-06-22T11:25:20;15.93;;;13.35;;
39190;SDS011;24916;51.676;6.614;2023-06-22T11:27:46;18.10;;;13.27;;
39190;SDS011;24916;51.676;6.614;2023-06-22T11:30:11;17.25;;;14.25;;
39190;SDS011;24916;51.676;6.614;2023-06-22T11:32:36;18.95;;;12.55;;
39190;SDS011;24916;51.676;6.614;2023-06-22T11:35:01;14.52;;;12.80;;
39190;SDS011;24916;51.676;6.614;2023-06-22T11:37:27;15.43;;;13.52;;
39190;SDS011;24916;51.676;6.614;2023-06-22T11:39:52;16.55;;;13.70;;
39190;SDS011;24916;51.676;6.614;2023-06-22T11:42:19;21.05;;;18.77;;
39190;SDS011;24916;51.676;6.614;2023-06-22T11:44:45;15.90;;;14.25;;
39190;SDS011;24916;51.676;6.614;2023-06-22T11:47:10;25.83;;;14.13;;
39190;SDS011;24916;51.676;6.614;2023-06-22T11:49:36;16.35;;;14.35;;
39190;SDS011;24916;51.676;6.614;2023-06-22T11:52:01;21.85;;;13.05;;
39190;SDS011;24916;51.676;6.614;2023-06-22T11:54:26;20.08;;;13.90;;
39190;SDS011;24916;51.676;6.614;2023-06-22T11:56:51;15.90;;;13.83;;
39190;SDS011;24916;51.676;6.614;2023-06-22T11:59:16;15.90;;;14.00;;
39190;SDS011;24916;51.676;6.614;2023-06-22T12:01:42;17.35;;;14.30;;
39190;SDS011;24916;51.676;6.614;2023-06-22T12:04:07;16.27;;;14.67;;
39190;SDS011;24916;51.676;6.614;2023-06-22T12:06:35;16.92;;;14.75;;
39190;SDS011;24916;51.676;6.614;2023-06-22T12:09:03;18.65;;;15.23;;
39190;SDS011;24916;51.676;6.614;2023-06-22T12:11:29;18.63;;;14.25;;
39190;SDS011;24916;51.676;6.614;2023-06-22T12:13:54;16.85;;;15.13;;
39190;SDS011;24916;51.676;6.614;2023-06-22T12:16:19;17.57;;;14.77;;
39190;SDS011;24916;51.676;6.614;2023-06-22T12:18:46;20.67;;;16.75;;
39190;SDS011;24916;51.676;6.614;2023-06-22T12:21:12;20.63;;;17.98;;
39190;SDS011;24916;51.676;6.614;2023-06-22T12:23:37;22.52;;;17.40;;
39190;SDS011;24916;51.676;6.614;2023-06-22T12:26:02;20.88;;;16.95;;
39190;SDS011;24916;51.676;6.614;2023-06-22T12:28:27;19.85;;;16.17;;
39190;SDS011;24916;51.676;6.614;2023-06-22T12:30:53;18.52;;;16.60;;
39190;SDS011;24916;51.676;6.614;2023-06-22T12:33:18;25.53;;;18.67;;
39190;SDS011;24916;51.676;6.614;2023-06-22T12:35:43;20.05;;;17.98;;
39190;SDS011;24916;51.676;6.614;2023-06-22T12:38:10;19.73;;;17.48;;
39190;SDS011;24916;51.676;6.614;2023-06-22T12:40:35;20.27;;;18.15;;
39190;SDS011;24916;51.676;6.614;2023-06-22T12:43:00;19.07;;;16.90;;
39190;SDS011;24916;51.676;6.614;2023-06-22T12:45:27;24.02;;;19.10;;
39190;SDS011;24916;51.676;6.614;2023-06-22T12:47:54;21.17;;;18.27;;
39190;SDS011;24916;51.676;6.614;2023-06-22T12:50:19;18.83;;;16.77;;
39190;SDS011;24916;51.676;6.614;2023-06-22T12:52:44;21.38;;;17.83;;
39190;SDS011;24916;51.676;6.614;2023-06-22T12:55:09;19.25;;;17.20;;
39190;SDS011;24916;51.676;6.614;2023-06-22T12:57:35;21.25;;;16.80;;
39190;SDS011;24916;51.676;6.614;2023-06-22T13:00:00;18.95;;;16.95;;
39190;SDS011;24916;51.676;6.614;2023-06-22T13:02:25;19.67;;;17.02;;
39190;SDS011;24916;51.676;6.614;2023-06-22T13:04:51;20.45;;;17.15;;
39190;SDS011;24916;51.676;6.614;2023-06-22T13:07:16;22.88;;;17.70;;
39190;SDS011;24916;51.676;6.614;2023-06-22T13:09:41;22.20;;;17.57;;
39190;SDS011;24916;51.676;6.614;2023-06-22T13:12:07;18.42;;;16.67;;
39190;SDS011;24916;51.676;6.614;2023-06-22T13:14:32;18.42;;;16.55;;
39190;SDS011;24916;51.676;6.614;2023-06-22T13:16:57;21.77;;;17.33;;
39190;SDS011;24916;51.676;6.614;2023-06-22T13:19:23;19.75;;;17.23;;
39190;SDS011;24916;51.676;6.614;2023-06-22T13:21:48;19.00;;;17.05;;
39190;SDS011;24916;51.676;6.614;2023-06-22T13:24:13;19.85;;;17.83;;
39190;SDS011;24916;51.676;6.614;2023-06-22T13:26:39;21.60;;;19.15;;
39190;SDS011;24916;51.676;6.614;2023-06-22T13:29:04;18.85;;;16.92;;
39190;SDS011;24916;51.676;6.614;2023-06-22T13:31:29;18.30;;;16.40;;
39190;SDS011;24916;51.676;6.614;2023-06-22T13:33:55;18.50;;;16.58;;
39190;SDS011;24916;51.676;6.614;2023-06-22T13:36:20;21.08;;;16.35;;
39190;SDS011;24916;51.676;6.614;2023-06-22T13:38:46;19.20;;;17.20;;
39190;SDS011;24916;51.676;6.614;2023-06-22T13:41:12;17.50;;;15.70;;
39190;SDS011;24916;51.676;6.614;2023-06-22T13:43:37;18.60;;;15.88;;
39190;SDS011;24916;51.676;6.614;2023-06-22T13:46:02;21.15;;;16.67;;
39190;SDS011;24916;51.676;6.614;2023-06-22T13:48:28;18.85;;;16.10;;
39190;SDS011;24916;51.676;6.614;2023-06-22T13:50:53;19.00;;;16.88;;
39190;SDS011;24916;51.676;6.614;2023-06-22T13:53:19;23.58;;;16.58;;
39190;SDS011;24916;51.676;6.614;2023-06-22T13:55:44;22.30;;;17.60;;
39190;SDS011;24916;51.676;6.614;2023-06-22T13:58:09;19.23;;;17.33;;
39190;SDS011;24916;51.676;6.614;2023-06-22T14:00:34;20.60;;;18.00;;
39190;SDS011;24916;51.676;6.614;2023-06-22T14:03:00;20.73;;;17.75;;
39190;SDS011;24916;51.676;6.614;2023-06-22T14:05:25;19.70;;;17.70;;
39190;SDS011;24916;51.676;6.614;2023-06-22T14:07:50;20.05;;;17.85;;
39190;SDS011;24916;51.676;6.614;2023-06-22T14:10:17;20.58;;;17.10;;
39190;SDS011;24916;51.676;6.614;2023-06-22T14:12:42;19.63;;;16.15;;
39190;SDS011;24916;51.676;6.614;2023-06-22T14:15:07;20.50;;;16.63;;
39190;SDS011;24916;51.676;6.614;2023-06-22T14:17:33;21.02;;;17.73;;